Airport Name : Tuscaloosa Rgnl

Other Name : Tuscaloosa Rgnl

ICAO : KTCL

IATA : TCL

FAA : TCL

Latitude : 33.220627

Longitude : -87.611403

Country : United States

Local Date and Time : 26 Feb 2021 10:01

 

TAF (Terminal Aerodrome Forecast)

KTCL 261133Z 2612/2712 05009KT 6SM BR VCSH OVC025 FM261700 10010KT 5SM SHRA BR VCTS OVC010CB FM262100 13010KT P6SM BKN010 PROB30 2621/2624 4SM SHRA BR OVC008 FM270600 19010G19KT P6SM BKN007

 

METAR (METeorological Aerodrome Report)

KTCL 261553Z 08006KT 10SM OVC017 14/11 A3012 RMK AO2 SLP197 T01440106

KTCL 261453Z VRB05KT 10SM OVC020 13/10 A3012 RMK AO2 RAB07E19 SLP196 P0000 60000 T01330100 51017

KTCL 261353Z 05005KT 10SM OVC022 12/08 A3012 RMK AO2 RAE35 SLP196 P0000 T01220083

KTCL 261253Z AUTO 03004KT 7SM -RA OVC022 13/06 A3009 RMK AO2 RAB49 SLP187 P0000 T01330061

To Charter a Jet Click here.